createdAt,value
2022-07-26T00:02:22.928Z,100178.41
2022-07-26T00:04:54.899Z,100177.67
2022-07-26T00:07:26.747Z,100181.06
2022-07-26T00:10:09.340Z,100178.73
2022-07-26T00:12:41.906Z,100173.88
2022-07-26T00:15:14.413Z,100165.82
2022-07-26T00:17:46.290Z,100158.48
2022-07-26T00:20:18.084Z,100151.48
2022-07-26T00:22:49.869Z,100148.62
2022-07-26T00:25:22.208Z,100143.58
2022-07-26T00:27:54.078Z,100152.52
2022-07-26T00:30:25.977Z,100154.67
2022-07-26T00:32:57.836Z,100159.15
2022-07-26T00:35:29.845Z,100156.81
2022-07-26T00:38:01.684Z,100148.41
2022-07-26T00:40:34.013Z,100139.84
2022-07-26T00:43:06.063Z,100134.48
2022-07-26T00:45:37.938Z,100130.19
2022-07-26T00:48:10.121Z,100127.17
2022-07-26T00:50:42.073Z,100125.55
2022-07-26T00:53:13.898Z,100121.44
2022-07-26T00:55:45.828Z,100123.94
2022-07-26T00:58:17.825Z,100130.56
2022-07-26T01:00:50.100Z,100126.82
2022-07-26T01:03:22.100Z,100129.51
2022-07-26T01:05:54.443Z,100128.44
2022-07-26T01:08:27.005Z,100127.35
2022-07-26T01:10:59.484Z,100128.80
2022-07-26T01:13:35.070Z,100132.54
2022-07-26T01:16:08.634Z,100127.53
2022-07-26T01:18:40.602Z,100127.71
2022-07-26T01:21:14.355Z,100126.99
2022-07-26T01:23:46.796Z,100124.66
2022-07-26T01:26:18.704Z,100120.19
2022-07-26T01:28:51.779Z,100125.92
2022-07-26T01:31:23.673Z,100124.84
2022-07-26T01:33:55.595Z,100128.59
2022-07-26T01:36:27.438Z,100130.92
2022-07-26T01:38:59.259Z,100130.91
2022-07-26T01:41:38.125Z,100128.92
2022-07-26T01:44:10.853Z,100130.71
2022-07-26T01:46:42.987Z,100129.80
2022-07-26T01:49:15.138Z,100126.59
2022-07-26T01:51:47.055Z,100122.81
2022-07-26T01:54:22.422Z,100124.23
2022-07-26T01:56:56.618Z,100117.78
2022-07-26T01:59:28.399Z,100121.71
2022-07-26T02:02:00.282Z,100120.45
2022-07-26T02:04:50.355Z,100119.02
2022-07-26T02:07:22.293Z,100107.05
2022-07-26T02:09:54.092Z,100103.81
2022-07-26T02:12:26.210Z,100098.44
2022-07-26T02:14:58.218Z,100102.20
2022-07-26T02:17:30.164Z,100105.05
2022-07-26T02:20:02.400Z,100105.77
2022-07-26T02:22:34.216Z,100103.62
2022-07-26T02:25:07.184Z,100115.26
2022-07-26T02:27:38.993Z,100127.59
2022-07-26T02:30:13.622Z,100132.95
2022-07-26T02:32:47.835Z,100126.86
2022-07-26T02:35:19.656Z,100123.45
2022-07-26T02:37:51.615Z,100118.27
2022-07-26T02:40:23.441Z,100112.36
2022-07-26T02:42:55.235Z,100106.45
2022-07-26T02:45:27.265Z,100095.34
2022-07-26T02:47:59.488Z,100093.70
2022-07-26T02:50:31.645Z,100105.14
2022-07-26T02:53:03.462Z,100109.58
2022-07-26T02:55:35.321Z,100114.05
2022-07-26T02:58:07.140Z,100105.80
2022-07-26T03:00:38.949Z,100106.52
2022-07-26T03:03:14.216Z,100135.32
2022-07-26T03:05:46.451Z,100207.75
2022-07-26T03:08:18.307Z,100171.25
2022-07-26T03:10:50.186Z,100167.47
2022-07-26T03:13:22.289Z,100173.34
2022-07-26T03:15:54.204Z,100172.63
2022-07-26T03:18:26.139Z,100167.23
2022-07-26T03:20:57.940Z,100164.20
2022-07-26T03:23:33.508Z,100150.39
2022-07-26T03:26:05.771Z,100143.41
2022-07-26T03:28:39.609Z,100152.19
2022-07-26T03:31:11.753Z,100142.17
2022-07-26T03:33:43.733Z,100133.95
2022-07-26T03:36:16.363Z,100121.61
2022-07-26T03:38:48.176Z,100113.76
2022-07-26T03:41:20.200Z,100112.34
2022-07-26T03:43:52.000Z,100123.80
2022-07-26T03:46:24.139Z,100118.48
2022-07-26T03:48:56.415Z,100133.16
2022-07-26T03:51:28.518Z,100134.77
2022-07-26T03:54:00.441Z,100143.02
2022-07-26T03:56:35.453Z,100136.20
2022-07-26T03:59:09.076Z,100137.83
2022-07-26T04:01:42.879Z,100149.10
2022-07-26T04:04:17.837Z,100148.38
2022-07-26T04:06:50.496Z,100153.23
2022-07-26T04:09:22.461Z,100158.77
2022-07-26T04:11:54.518Z,100170.39
2022-07-26T04:14:26.302Z,100164.70
2022-07-26T04:16:58.186Z,100152.73
2022-07-26T04:19:30.163Z,100160.45
2022-07-26T04:22:02.031Z,100168.34
2022-07-26T04:24:33.860Z,100168.88
2022-07-26T04:27:05.859Z,100169.95
2022-07-26T04:29:37.651Z,100171.39
2022-07-26T04:32:09.975Z,100175.16
2022-07-26T04:34:41.785Z,100170.17
2022-07-26T04:37:13.618Z,100173.75
2022-07-26T04:39:45.452Z,100177.88
2022-07-26T04:42:17.233Z,100182.88
2022-07-26T04:44:49.036Z,100178.75
2022-07-26T04:47:20.787Z,100171.06
2022-07-26T04:49:52.570Z,100174.99
2022-07-26T04:52:24.446Z,100182.50
2022-07-26T04:54:56.252Z,100185.71
2022-07-26T04:57:28.142Z,100209.52
2022-07-26T05:00:20.277Z,100231.35
2022-07-26T05:02:54.728Z,100247.14
2022-07-26T05:05:30.845Z,100259.90
2022-07-26T05:08:04.476Z,100274.08
2022-07-26T05:10:40.616Z,100275.41
2022-07-26T05:13:12.660Z,100280.79
2022-07-26T05:15:44.508Z,100284.05
2022-07-26T05:18:17.280Z,100281.77
2022-07-26T05:20:51.711Z,100286.66
2022-07-26T05:23:23.515Z,100297.23
2022-07-26T05:25:55.493Z,100300.30
2022-07-26T05:28:27.524Z,100296.17
2022-07-26T05:30:59.352Z,100292.44
2022-07-26T05:33:31.223Z,100289.57
2022-07-26T05:36:03.045Z,100284.73
2022-07-26T05:38:34.887Z,100283.80
2022-07-26T05:41:07.322Z,100275.00
2022-07-26T05:43:41.066Z,100253.30
2022-07-26T05:46:16.090Z,100241.67
2022-07-26T05:48:48.038Z,100247.38
2022-07-26T05:51:19.984Z,100243.06
2022-07-26T05:53:53.408Z,100246.48
2022-07-26T05:56:25.240Z,100248.40
2022-07-26T05:58:57.216Z,100244.20
2022-07-26T06:01:32.518Z,100237.98
2022-07-26T06:04:04.898Z,100257.67
2022-07-26T06:06:36.938Z,100263.51
2022-07-26T06:09:08.728Z,100264.09
2022-07-26T06:11:40.493Z,100267.66
2022-07-26T06:14:12.825Z,100271.52
2022-07-26T06:16:44.974Z,100281.69
2022-07-26T06:19:17.282Z,100295.97
2022-07-26T06:21:49.150Z,100269.09
2022-07-26T06:24:20.965Z,100274.35
2022-07-26T06:26:57.090Z,100266.88
2022-07-26T06:29:36.718Z,100261.98
2022-07-26T06:32:09.402Z,100274.02
2022-07-26T06:34:41.263Z,100287.19
2022-07-26T06:37:13.082Z,100301.95
2022-07-26T06:39:44.920Z,100317.63
2022-07-26T06:42:16.680Z,100327.02
2022-07-26T06:44:48.510Z,100310.57
2022-07-26T06:47:20.312Z,100304.05
2022-07-26T06:49:52.359Z,100321.31
2022-07-26T06:52:24.298Z,100337.33
2022-07-26T06:54:56.201Z,100346.06
2022-07-26T06:57:28.418Z,100347.93
2022-07-26T07:00:00.237Z,100348.66
2022-07-26T07:02:32.013Z,100350.11
2022-07-26T07:05:04.083Z,100349.70
2022-07-26T07:07:37.854Z,100359.34
2022-07-26T07:10:12.635Z,100353.95
2022-07-26T07:12:45.015Z,100343.57
2022-07-26T07:15:16.836Z,100336.20
2022-07-26T07:17:49.159Z,100333.95
2022-07-26T07:20:20.941Z,100345.56
2022-07-26T07:22:52.880Z,100348.66
2022-07-26T07:25:30.771Z,100362.84
2022-07-26T07:28:03.134Z,100378.81
2022-07-26T07:30:35.035Z,100381.41
2022-07-26T07:33:09.520Z,100377.40
2022-07-26T07:35:55.240Z,100375.38
2022-07-26T07:38:27.047Z,100386.61
2022-07-26T07:41:02.117Z,100397.02
2022-07-26T07:43:34.174Z,100400.73
2022-07-26T07:46:07.331Z,100404.23
2022-07-26T07:48:46.600Z,100394.45
2022-07-26T07:51:19.473Z,100383.40
2022-07-26T07:53:56.708Z,100376.86
2022-07-26T07:56:29.887Z,100385.88
2022-07-26T07:59:02.007Z,100394.73
2022-07-26T08:01:39.690Z,100400.19
2022-07-26T08:04:12.618Z,100408.48
2022-07-26T08:06:50.424Z,100401.13
2022-07-26T08:09:23.506Z,100397.92
2022-07-26T08:11:55.306Z,100384.07
2022-07-26T08:14:27.132Z,100376.75
2022-07-26T08:16:59.228Z,100385.27
2022-07-26T08:19:41.927Z,100402.63
2022-07-26T08:22:14.522Z,100410.98
2022-07-26T08:24:47.099Z,100408.39
2022-07-26T08:27:19.083Z,100414.56
2022-07-26T08:29:50.948Z,100423.10
2022-07-26T08:32:22.880Z,100427.77
2022-07-26T08:34:54.793Z,100424.36
2022-07-26T08:37:46.565Z,100418.30
2022-07-26T08:40:18.750Z,100424.08
2022-07-26T08:42:53.870Z,100431.91
2022-07-26T08:45:26.924Z,100446.00
2022-07-26T08:50:51.956Z,100456.47
2022-07-26T08:53:24.059Z,100449.14
2022-07-26T08:56:07.787Z,100453.73
2022-07-26T08:58:40.994Z,100466.66
2022-07-26T09:01:14.387Z,100478.30
2022-07-26T09:03:47.043Z,100471.40
2022-07-26T09:06:21.090Z,100463.46
2022-07-26T09:08:54.498Z,100467.13
2022-07-26T09:11:32.143Z,100473.69
2022-07-26T09:14:06.670Z,100480.80
2022-07-26T09:16:40.026Z,100482.28
2022-07-26T09:19:23.893Z,100486.02
2022-07-26T09:22:10.093Z,100489.42
2022-07-26T09:24:44.334Z,100494.60
2022-07-26T09:27:17.830Z,100501.30
2022-07-26T09:29:51.611Z,100513.52
2022-07-26T09:32:26.462Z,100513.76
2022-07-26T09:35:44.183Z,100510.61
2022-07-26T09:38:12.982Z,100513.04
2022-07-26T09:40:50.463Z,100509.98
2022-07-26T09:43:24.479Z,100511.92
2022-07-26T09:46:11.060Z,100509.08
2022-07-26T09:54:38.266Z,100515.65
2022-07-26T09:57:10.180Z,100514.22
2022-07-26T09:59:42.327Z,100516.23
2022-07-26T10:02:15.119Z,100523.92
2022-07-26T10:04:47.025Z,100523.25
2022-07-26T10:07:19.589Z,100520.30
2022-07-26T10:09:58.482Z,100524.97
2022-07-26T10:12:34.386Z,100521.54
2022-07-26T10:15:07.489Z,100526.86
2022-07-26T10:17:43.331Z,100524.76
2022-07-26T10:20:43.295Z,100530.94
2022-07-26T10:23:43.223Z,100533.52
2022-07-26T10:26:30.007Z,100532.35
2022-07-26T10:29:25.813Z,100537.77
2022-07-26T10:32:20.522Z,100539.82
2022-07-26T10:34:52.425Z,100541.27
2022-07-26T10:37:30.509Z,100539.48
2022-07-26T10:40:25.667Z,100539.00
2022-07-26T10:43:37.979Z,100544.29
2022-07-26T10:46:28.262Z,100539.18
2022-07-26T10:49:03.754Z,100541.40
2022-07-26T12:04:06.946Z,100537.37
2022-07-26T12:19:32.385Z,100519.83
2022-07-26T12:33:02.390Z,100513.08
2022-07-26T12:35:34.853Z,100514.35
2022-07-26T12:38:03.623Z,100514.06
2022-07-26T12:40:41.334Z,100511.04
2022-07-26T12:43:10.887Z,100509.26
2022-07-26T12:45:39.690Z,100511.26
2022-07-26T12:48:11.200Z,100508.55
2022-07-26T12:50:40.005Z,100506.03
2022-07-26T12:53:14.649Z,100505.14
2022-07-26T12:55:43.071Z,100504.61
2022-07-26T12:58:11.504Z,100502.80
2022-07-26T13:00:40.439Z,100508.76
2022-07-26T13:03:08.988Z,100505.51
2022-07-26T13:05:37.614Z,100506.58
2022-07-26T13:08:06.367Z,100503.52
2022-07-26T13:10:35.972Z,100502.63
2022-07-26T13:13:04.832Z,100503.52
2022-07-26T13:15:36.533Z,100506.03
2022-07-26T13:18:07.778Z,100507.30
2022-07-26T13:20:38.025Z,100506.02
2022-07-26T13:23:11.248Z,100502.96
2022-07-26T13:25:40.725Z,100501.71
2022-07-26T13:28:09.643Z,100498.29
2022-07-26T13:30:42.221Z,100499.01
2022-07-26T13:33:12.039Z,100498.28
2022-07-26T13:35:41.854Z,100498.64
2022-07-26T13:38:10.375Z,100501.00
2022-07-26T13:40:38.937Z,100504.23
2022-07-26T13:43:07.382Z,100502.43
2022-07-26T13:45:35.956Z,100501.89
2022-07-26T13:48:05.244Z,100503.88
2022-07-26T13:50:33.793Z,100504.05
2022-07-26T13:53:02.278Z,100502.60
2022-07-26T13:55:30.789Z,100503.34
2022-07-26T13:57:59.195Z,100496.69
2022-07-26T14:00:29.010Z,100498.66
2022-07-26T14:02:59.477Z,100499.20
2022-07-26T14:05:28.646Z,100496.30
2022-07-26T14:07:57.061Z,100501.16
2022-07-26T14:10:25.865Z,100499.18
2022-07-26T14:12:54.421Z,100496.65
2022-07-26T14:15:23.661Z,100498.82
2022-07-26T14:17:52.679Z,100499.73
2022-07-26T14:20:21.716Z,100497.22
2022-07-26T14:22:53.006Z,100494.70
2022-07-26T14:25:22.082Z,100495.59
2022-07-26T14:27:56.732Z,100497.77
2022-07-26T14:30:28.409Z,100492.38
2022-07-26T14:32:56.835Z,100494.15
2022-07-26T14:35:28.400Z,100489.29
2022-07-26T14:37:57.067Z,100490.92
2022-07-26T14:40:25.798Z,100488.58
2022-07-26T14:42:54.519Z,100492.36
2022-07-26T14:45:22.958Z,100490.20
2022-07-26T14:47:51.373Z,100490.75
2022-07-26T14:50:22.264Z,100490.39
2022-07-26T14:52:50.678Z,100490.02
2022-07-26T14:55:25.047Z,100487.88
2022-07-26T14:57:54.923Z,100489.85
2022-07-26T15:00:26.284Z,100486.61
2022-07-26T15:02:54.796Z,100485.34
2022-07-26T15:05:24.696Z,100488.77
2022-07-26T15:07:53.353Z,100483.52
2022-07-26T15:10:28.667Z,100483.19
2022-07-26T15:12:57.565Z,100483.36
2022-07-26T15:15:26.501Z,100483.36
2022-07-26T15:17:55.293Z,100484.27
2022-07-26T15:20:24.740Z,100483.55
2022-07-26T15:22:53.725Z,100480.31
2022-07-26T15:25:23.717Z,100480.13
2022-07-26T15:27:52.704Z,100471.11
2022-07-26T15:30:21.266Z,100469.81
2022-07-26T15:32:53.957Z,100470.89
2022-07-26T15:35:22.570Z,100473.93
2022-07-26T15:37:51.210Z,100470.31
2022-07-26T15:40:20.476Z,100470.88
2022-07-26T15:42:51.400Z,100472.51
2022-07-26T15:45:21.912Z,100468.39
2022-07-26T15:47:57.385Z,100471.27
2022-07-26T15:50:30.003Z,100469.45
2022-07-26T15:52:58.473Z,100463.16
2022-07-26T15:55:26.961Z,100463.70
2022-07-26T15:57:55.605Z,100462.46
2022-07-26T16:00:24.231Z,100460.84
2022-07-26T16:02:52.736Z,100461.02
2022-07-26T16:05:21.280Z,100461.40
2022-07-26T16:07:49.898Z,100465.34
2022-07-26T16:10:18.772Z,100464.61
2022-07-26T16:12:47.492Z,100462.27
2022-07-26T16:15:16.147Z,100462.63
2022-07-26T16:17:44.561Z,100464.60
2022-07-26T16:20:13.027Z,100465.13
2022-07-26T16:22:41.502Z,100469.77
2022-07-26T16:25:12.983Z,100469.02
2022-07-26T16:27:43.125Z,100475.67
2022-07-26T16:30:14.707Z,100471.68
2022-07-26T16:32:43.213Z,100473.50
2022-07-26T16:35:12.737Z,100474.98
2022-07-26T16:37:41.637Z,100473.20
2022-07-26T16:40:11.843Z,100477.36
2022-07-26T16:42:40.328Z,100474.13
2022-07-26T16:45:10.182Z,100474.88
2022-07-26T16:47:38.630Z,100478.67
2022-07-26T16:50:08.667Z,100480.48
2022-07-26T16:52:37.146Z,100476.49
2022-07-26T16:55:10.295Z,100476.69
2022-07-26T16:57:39.042Z,100481.56
2022-07-26T17:00:11.441Z,100480.13
2022-07-26T17:02:39.946Z,100480.48
2022-07-26T17:05:10.286Z,100483.20
2022-07-26T17:07:38.728Z,100490.21
2022-07-26T17:10:10.830Z,100490.02
2022-07-26T17:12:40.309Z,100490.39
2022-07-26T17:15:11.048Z,100490.75
2022-07-26T17:17:40.102Z,100493.27
2022-07-26T17:20:11.201Z,100493.63
2022-07-26T17:22:39.589Z,100490.56
2022-07-26T17:25:09.547Z,100493.80
2022-07-26T17:27:38.122Z,100500.45
2022-07-26T17:30:09.330Z,100500.11
2022-07-26T17:32:37.881Z,100498.50
2022-07-26T17:35:07.806Z,100503.16
2022-07-26T17:37:36.746Z,100509.47
2022-07-26T17:40:08.131Z,100507.29
2022-07-26T17:42:37.358Z,100509.81
2022-07-26T17:45:08.740Z,100512.67
2022-07-26T17:47:37.226Z,100512.67
2022-07-26T17:52:56.336Z,100518.91
2022-07-26T17:55:25.097Z,100523.56
2022-07-26T17:57:53.540Z,100525.70
2022-07-26T18:00:23.289Z,100529.09
2022-07-26T18:02:55.895Z,100533.36
2022-07-26T18:05:32.254Z,100534.23
2022-07-26T18:08:02.652Z,100537.80
2022-07-26T18:10:31.240Z,100539.20
2022-07-26T18:12:59.620Z,100540.44
2022-07-26T18:15:28.094Z,100537.90
2022-07-26T18:17:56.513Z,100540.20
2022-07-26T18:20:25.182Z,100541.43
2022-07-26T18:22:54.365Z,100544.97
2022-07-26T18:25:23.147Z,100554.27
2022-07-26T18:27:53.242Z,100555.16
2022-07-26T18:30:21.711Z,100557.59
2022-07-26T18:32:50.741Z,100561.46
2022-07-26T18:35:19.389Z,100565.14
2022-07-26T18:37:48.103Z,100568.11
2022-07-26T18:40:16.597Z,100568.15
2022-07-26T18:42:45.043Z,100572.67
2022-07-26T18:45:13.840Z,100574.73
2022-07-26T18:47:42.687Z,100578.24
2022-07-26T18:50:12.562Z,100580.66
2022-07-26T18:52:46.095Z,100588.39
2022-07-26T18:55:14.959Z,100592.48
2022-07-26T18:57:44.114Z,100598.45
2022-07-26T19:00:16.336Z,100605.27
2022-07-26T19:02:46.217Z,100609.08
2022-07-26T19:05:16.061Z,100614.12
2022-07-26T19:07:45.269Z,100614.49
2022-07-26T19:10:14.768Z,100619.37
2022-07-26T19:12:44.732Z,100624.64
2022-07-26T19:15:13.126Z,100631.98
2022-07-26T19:17:41.739Z,100637.48
2022-07-26T19:20:10.871Z,100639.89
2022-07-26T19:22:39.935Z,100638.52
2022-07-26T19:25:10.246Z,100640.89
2022-07-26T19:27:38.899Z,100640.84
2022-07-26T19:30:10.095Z,100645.54
2022-07-26T19:32:38.889Z,100652.37
2022-07-26T19:35:09.642Z,100662.77
2022-07-26T19:37:38.101Z,100659.41
2022-07-26T19:40:08.819Z,100662.54
2022-07-26T19:42:37.383Z,100662.31
2022-07-26T19:45:07.395Z,100665.30
2022-07-26T19:47:36.804Z,100666.15
2022-07-26T19:50:08.511Z,100667.47
2022-07-26T19:52:37.539Z,100668.90
2022-07-26T19:55:07.801Z,100667.98
2022-07-26T19:57:36.348Z,100671.86
2022-07-26T20:00:07.006Z,100676.09
2022-07-26T20:02:41.814Z,100677.09
2022-07-26T20:05:11.583Z,100682.02
2022-07-26T20:07:40.642Z,100685.19
2022-07-26T20:10:09.723Z,100684.06
2022-07-26T20:12:38.891Z,100688.11
2022-07-26T20:15:09.256Z,100691.27
2022-07-26T20:17:39.151Z,100694.41
2022-07-26T20:20:10.358Z,100695.90
2022-07-26T20:22:38.754Z,100697.27
2022-07-26T20:25:09.283Z,100700.08
2022-07-26T20:27:37.947Z,100700.87
2022-07-26T20:30:09.317Z,100708.77
2022-07-26T20:32:37.845Z,100712.23
2022-07-26T20:35:08.304Z,100714.32
2022-07-26T20:37:37.030Z,100713.16
2022-07-26T20:40:09.329Z,100713.75
2022-07-26T20:42:40.480Z,100720.02
2022-07-26T20:45:13.284Z,100718.67
2022-07-26T20:47:42.292Z,100718.41
2022-07-26T20:50:11.727Z,100719.40
2022-07-26T20:52:40.496Z,100723.82
2022-07-26T20:55:10.209Z,100723.19
2022-07-26T20:57:38.710Z,100729.23
2022-07-26T21:00:10.777Z,100732.00
2022-07-26T21:02:39.343Z,100735.69
2022-07-26T21:05:09.432Z,100737.78
2022-07-26T21:07:55.092Z,100739.86
2022-07-26T21:10:26.981Z,100743.65
2022-07-26T21:12:59.649Z,100747.31
2022-07-26T21:15:28.440Z,100751.33
2022-07-26T21:17:57.297Z,100757.55
2022-07-26T21:20:25.668Z,100757.48
2022-07-26T21:23:03.618Z,100758.80
2022-07-26T21:25:41.596Z,100762.55
2022-07-26T21:28:10.007Z,100764.85
2022-07-26T21:30:38.535Z,100764.03
2022-07-26T21:33:07.293Z,100768.80
2022-07-26T21:35:35.836Z,100771.26
2022-07-26T21:38:04.245Z,100775.80
2022-07-26T21:40:32.645Z,100776.58
2022-07-26T21:43:01.099Z,100775.94
2022-07-26T21:45:29.556Z,100781.05
2022-07-26T21:47:57.985Z,100779.54
2022-07-26T21:50:27.276Z,100785.31
2022-07-26T21:52:55.633Z,100782.29
2022-07-26T21:55:23.960Z,100782.77
2022-07-26T21:57:52.349Z,100783.41
2022-07-26T22:00:20.712Z,100784.41
2022-07-26T22:02:49.122Z,100787.89
2022-07-26T22:05:37.441Z,100790.11
2022-07-26T22:08:10.764Z,100793.77
2022-07-26T22:10:44.260Z,100796.91
2022-07-26T22:13:13.969Z,100797.84
2022-07-26T22:15:43.275Z,100802.54
2022-07-26T22:18:12.013Z,100804.27
2022-07-26T22:20:41.263Z,100799.35
2022-07-26T22:23:11.340Z,100802.96
2022-07-26T22:25:40.154Z,100803.53
2022-07-26T22:28:10.173Z,100804.44
2022-07-26T22:30:39.674Z,100803.35
2022-07-26T22:33:11.184Z,100808.54
2022-07-26T22:35:39.658Z,100817.65
2022-07-26T22:38:10.654Z,100818.41
2022-07-26T22:40:40.854Z,100822.95
2022-07-26T22:43:10.279Z,100828.59
2022-07-26T22:45:38.724Z,100830.20
2022-07-26T22:48:08.996Z,100833.33
2022-07-26T22:50:38.497Z,100834.34
2022-07-26T22:53:07.186Z,100832.67
2022-07-26T22:55:35.721Z,100833.96
2022-07-26T22:58:04.243Z,100834.05
2022-07-26T23:00:32.771Z,100838.77
2022-07-26T23:03:01.267Z,100842.20
2022-07-26T23:05:45.264Z,100841.39
2022-07-26T23:11:04.820Z,100835.54
2022-07-26T23:13:33.808Z,100836.84
2022-07-26T23:16:02.532Z,100831.86
2022-07-26T23:18:32.821Z,100836.05
2022-07-26T23:21:01.828Z,100831.95
2022-07-26T23:23:32.362Z,100835.46
2022-07-26T23:26:01.352Z,100840.45
2022-07-26T23:28:36.981Z,100845.66
2022-07-26T23:31:08.408Z,100843.85
2022-07-26T23:33:50.755Z,100841.39
2022-07-26T23:36:25.992Z,100840.73
2022-07-26T23:38:55.914Z,100841.98
2022-07-26T23:41:24.905Z,100845.23
2022-07-26T23:43:54.325Z,100842.05
2022-07-26T23:46:23.727Z,100841.02
2022-07-26T23:48:52.941Z,100843.73
2022-07-26T23:51:22.539Z,100839.41
2022-07-26T23:53:51.290Z,100837.37
2022-07-26T23:56:19.881Z,100835.63
2022-07-26T23:58:48.646Z,100836.06
